East Marion, NY

9:03 PM EST on January 16, 2017 (GMT -0500)
Gullpond Ramp | | Change Station

Elev 50 ft 41.11 °N, 72.35 °W | Updated 8 seconds ago

Partly Cloudy
Partly Cloudy
34.9 °F
Feels Like 35 °F
N
1.0
Wind Variable Wind from WNW

Today
High -- | Low -- °F
--% Chance of Precip.
Yesterday
High -- | Low -- °F
Precip. -- in
Pressure 30.33 in
Visibility 10.0 miles
Clouds Clear
Windchill 35 °F
Dew Point 29 °F
Humidity 80%
Rainfall 0.00 in
Snow Depth Not available.
7:11 AM 4:46 PM
Waning Gibbous, 77% visible
METAR KHTO 170155Z AUTO 26005KT 10SM CLR 01/M02 A3033 RMK AO2 T00111021
Pressure 30.33 in
Visibility 10.0 miles
Clouds Clear
Windchill 35 °F
Dew Point 29 °F
Humidity 80%
Rainfall 0.00 in
Snow Depth Not available.
7:11 AM 4:46 PM
Waning Gibbous, 77% visible
METAR KHTO 170155Z AUTO 26005KT 10SM CLR 01/M02 A3033 RMK AO2 T00111021

Get Your Daily Forecast Email!

Thanks for signing up!

Be on the lookout for a verification email in your inbox.

You'll start receiving the daily forecast at 8 AM.

×

10-Day Weather Forecast

Almanac

Astronomy

Jan. 16, 2017 Rise Set
Actual Time
Civil Twilight
Nautical Twilight
Astronomical Twilight
Moon
Length of Visible Light
Length of Day
Tomorrow will be .
, % of the Moon is Illuminated

Today's Extremes

State Highs State Lows

Community

WunderPhotos

Upload Photos

1,962,540 photos uploaded!

WunderBlog® & News

Nearby

Air Quality

  Air Quality AQ Index Pollutant
Not available.

Snow Depth

Station Depth Elevation

Earthquake Activity

City Distance Mag. Time & Date
Minimum magnitude displayed is 2.5.

Coastal Water Temperatures

Place Temperature

Stations

Nearby Weather Stations

Station Location Temp. Windchill Dew Point Humidity Wind Precip. Elev Updated Type
                   

Watches & Warnings

There are currently no watches in effect.